Pileas I — P3YG9 — position and weather

sailwx.info

Track history (hours):
 
Tides and Currents Weather Stations Pressure Air Temp Water Temp Dewpoint Dewpoint Depression Visibility Wind Speed Wind Dir Waves Ship Positions

Pileas I

Last reported at 2014-Oct-02 09:31 UTC. Time now 2014-Oct-02 10:27 UTC.
Position N 34°39' E 033°00'.

Length 36 m; draft 3.6 m.

Type: Tug. MMSI: 209668000.

Date/timePositionNaut miles runAvg speedWind from/ knotsBaromVisibWave heightAir tempDewpointWater temp
2014-Oct-02 09:31N 34°39' E 033°00'0 0.0
2014-Oct-02 08:31N 34°39' E 033°00'0 0.0
2014-Oct-02 07:31N 34°39' E 033°00'0 0.0
2014-Oct-02 06:31N 34°39' E 033°00'0 0.0
2014-Oct-02 05:31N 34°39' E 033°00'0 0.0
2014-Oct-02 04:33N 34°39' E 033°00'0 0.0
2014-Oct-02 03:30N 34°39' E 033°00'0 0.0
2014-Oct-02 02:30N 34°39' E 033°00'0 0.0
2014-Oct-02 01:33N 34°39' E 033°00'0 0.0
2014-Oct-02 00:33N 34°39' E 033°00'0 0.0
2014-Oct-01 23:31N 34°39' E 033°00'0 0.0
2014-Oct-01 22:33N 34°39' E 033°00'0 0.0
2014-Oct-01 21:33N 34°39' E 033°00'0 0.0
2014-Oct-01 20:33N 34°39' E 033°00'0 0.0
2014-Oct-01 19:33N 34°39' E 033°00'0 0.0
2014-Oct-01 18:30N 34°39' E 033°00'0 0.0
2014-Oct-01 17:34N 34°39' E 033°00'0 0.0
2014-Oct-01 16:34N 34°39' E 033°00'0 0.0
2014-Oct-01 15:33N 34°39' E 033°00'0 0.0
2014-Oct-01 14:31N 34°39' E 033°00'0 0.0
2014-Oct-01 13:33N 34°39' E 033°00'0 0.0
2014-Oct-01 12:33N 34°39' E 033°00'0 0.0
2014-Oct-01 11:33N 34°39' E 033°00'0 0.0
2014-Oct-01 10:31N 34°39' E 033°00'0 0.0
2014-Oct-01 09:30N 34°39' E 033°00'0 0.0
2014-Oct-01 08:30N 34°39' E 033°00'0 0.0
2014-Oct-01 07:30N 34°39' E 033°00'0 0.0
2014-Oct-01 06:31N 34°39' E 033°00'0 0.0
2014-Oct-01 05:33N 34°39' E 033°00'0 0.0
2014-Oct-01 04:33N 34°39' E 033°00'0 0.0
2014-Oct-01 03:33N 34°39' E 033°00'0 0.0
2014-Oct-01 02:33N 34°39' E 033°00'0 0.0
2014-Oct-01 01:33N 34°39' E 033°00'0 0.0
2014-Oct-01 00:32N 34°39' E 033°00'0 0.0
2014-Sep-30 23:33N 34°39' E 033°00'0 0.0
2014-Sep-30 22:33N 34°39' E 033°00'0 0.0
2014-Sep-30 21:33N 34°39' E 033°00'0 0.0
2014-Sep-30 20:33N 34°39' E 033°00'0 0.0
2014-Sep-30 19:33N 34°39' E 033°00'0 0.0
2014-Sep-30 18:33N 34°39' E 033°00'0 0.0
2014-Sep-30 17:32N 34°39' E 033°00'0 0.0
2014-Sep-30 16:33N 34°39' E 033°00'0 0.0
2014-Sep-30 15:33N 34°39' E 033°00'0 0.0
2014-Sep-30 14:33N 34°39' E 033°00'0 0.0
2014-Sep-30 13:33N 34°39' E 033°00'0 0.0
2014-Sep-30 12:34N 34°39' E 033°00'0 0.0
2014-Sep-30 11:33N 34°39' E 033°00'0 0.0
2014-Sep-30 10:33N 34°39' E 033°00'0 0.0
2014-Sep-30 09:33N 34°39' E 033°00'0 0.0
2014-Sep-30 08:33N 34°39' E 033°00'0 0.0
2014-Sep-30 07:33N 34°39' E 033°00'0 0.0
2014-Sep-30 06:33N 34°39' E 033°00'0 0.0
2014-Sep-30 05:33N 34°39' E 033°00'0 0.0
2014-Sep-30 04:30N 34°39' E 033°00'0 0.0
2014-Sep-30 03:33N 34°39' E 033°00'0 0.0
2014-Sep-30 02:31N 34°39' E 033°00'0 0.0
2014-Sep-30 01:33N 34°39' E 033°00'0 0.0
2014-Sep-30 00:31N 34°39' E 033°00'0 0.0
2014-Sep-29 23:34N 34°39' E 033°00'0 0.0
2014-Sep-29 22:31N 34°39' E 033°00'0 0.0
2014-Sep-29 21:33N 34°39' E 033°00'0 0.0
2014-Sep-29 20:31N 34°39' E 033°00'0 0.0
2014-Sep-29 19:31N 34°39' E 033°00'0 0.0
2014-Sep-29 18:31N 34°39' E 033°00'0 0.0
2014-Sep-29 17:31N 34°39' E 033°00'0 0.0
2014-Sep-29 16:33N 34°39' E 033°00'0 0.0
2014-Sep-29 15:33N 34°39' E 033°00'0 0.0
2014-Sep-29 14:32N 34°39' E 033°00'0 0.0
2014-Sep-29 13:33N 34°39' E 033°00'0 0.0
2014-Sep-29 12:33N 34°39' E 033°00'0 0.0
2014-Sep-29 11:32N 34°39' E 033°00'0 0.0
2014-Sep-29 10:32N 34°39' E 033°00'0 0.0
2014-Sep-29 09:33N 34°39' E 033°00'0 0.0
2014-Sep-29 08:33N 34°39' E 033°00'3 2.8
2014-Sep-29 07:33N 34°39' E 033°04'8 7.7
2014-Sep-29 06:33N 34°40' E 033°13'6 4.6
2014-Sep-29 05:18N 34°43' E 033°19'3 4.2
2014-Sep-29 04:33N 34°40' E 033°18'9 8.7
2014-Sep-29 03:34N 34°39' E 033°07'6 5.6
2014-Sep-29 02:33N 34°39' E 033°00'0 0.0
2014-Sep-29 01:32N 34°39' E 033°00'0 0.0
2014-Sep-29 00:32N 34°39' E 033°00'0 0.0
2014-Sep-28 23:32N 34°39' E 033°00'0 0.0
2014-Sep-28 22:32N 34°39' E 033°00'0 0.0
2014-Sep-28 21:29N 34°39' E 033°00'0 0.0
2014-Sep-28 20:32N 34°39' E 033°00'0 0.0
2014-Sep-28 19:32N 34°39' E 033°00'0 0.0
2014-Sep-28 18:32N 34°39' E 033°00'0 0.0
2014-Sep-28 17:32N 34°39' E 033°00'0 0.0
2014-Sep-28 16:32N 34°39' E 033°00'0 0.0
2014-Sep-28 15:32N 34°39' E 033°00'0 0.0
2014-Sep-28 14:32N 34°39' E 033°00'0 0.0
2014-Sep-28 13:32N 34°39' E 033°00'0 0.0
2014-Sep-28 12:29N 34°39' E 033°00'0 0.0
2014-Sep-28 11:32N 34°39' E 033°00'0 0.0
2014-Sep-28 10:32N 34°39' E 033°00'0 0.0
2014-Sep-28 09:32N 34°39' E 033°00'0 0.0
2014-Sep-28 08:32N 34°39' E 033°00'0 0.0
2014-Sep-28 07:32N 34°39' E 033°00'0 0.0
2014-Sep-28 06:32N 34°39' E 033°00'0 0.0
2014-Sep-28 05:32N 34°39' E 033°00'0 0.0
2014-Sep-28 04:29N 34°39' E 033°00'0 0.0
2014-Sep-28 03:32N 34°39' E 033°00'0 0.0
2014-Sep-28 02:32N 34°39' E 033°00'0 0.0
2014-Sep-28 01:32N 34°39' E 033°00'0 0.0
2014-Sep-28 00:32N 34°39' E 033°00'0 0.0
2014-Sep-27 23:31N 34°39' E 033°00'0 0.0
2014-Sep-27 22:32N 34°39' E 033°00'0 0.0
2014-Sep-27 21:32N 34°39' E 033°00'0 0.0
2014-Sep-27 20:32N 34°39' E 033°00'0 0.0
2014-Sep-27 19:32N 34°39' E 033°00'0 0.0
2014-Sep-27 18:31N 34°39' E 033°00'0 0.0
2014-Sep-27 17:32N 34°39' E 033°00'0 0.0
2014-Sep-27 16:34N 34°39' E 033°00'0 0.0
2014-Sep-27 15:30N 34°39' E 033°00'0 0.0
2014-Sep-27 14:33N 34°39' E 033°00'0 0.0
2014-Sep-27 13:31N 34°39' E 033°00'0 0.0
2014-Sep-27 12:33N 34°39' E 033°00'0 0.0
2014-Sep-27 11:31N 34°39' E 033°00'0 0.0
2014-Sep-27 10:33N 34°39' E 033°00'0 0.0
2014-Sep-27 09:33N 34°39' E 033°00'0 0.0
2014-Sep-27 08:30N 34°39' E 033°00'0 0.0
2014-Sep-27 07:31N 34°39' E 033°00'0 0.0
2014-Sep-27 06:33N 34°39' E 033°00'0 0.0
2014-Sep-27 05:33N 34°39' E 033°00'0 0.0
2014-Sep-27 04:32N 34°39' E 033°00'0 0.0
2014-Sep-27 03:32N 34°39' E 033°00'0 0.0
2014-Sep-27 02:32N 34°39' E 033°00'0 0.0
2014-Sep-27 01:33N 34°39' E 033°00'0 0.0
2014-Sep-27 00:32N 34°39' E 033°00'0 0.0
2014-Sep-26 23:32N 34°39' E 033°00'0 0.0
2014-Sep-26 22:32N 34°39' E 033°00'0 0.0
2014-Sep-26 21:29N 34°39' E 033°00'0 0.0
2014-Sep-26 20:17N 34°39' E 033°00'0 0.0
2014-Sep-26 19:33N 34°39' E 033°00'0 0.0
2014-Sep-26 18:32N 34°39' E 033°00'0 0.0
2014-Sep-26 17:29N 34°39' E 033°00'0 0.0
2014-Sep-26 16:25N 34°39' E 033°00'0 0.0
2014-Sep-26 15:26N 34°39' E 033°00'0 0.0
2014-Sep-26 14:31N 34°39' E 033°00'0 0.0
2014-Sep-26 13:31N 34°39' E 033°00'0 0.0
2014-Sep-26 12:31N 34°39' E 033°00'0 0.0
2014-Sep-26 11:31N 34°39' E 033°00'0 0.0
2014-Sep-26 10:31N 34°39' E 033°00'0 0.0
2014-Sep-26 09:31N 34°39' E 033°00'0 0.0
2014-Sep-26 08:28N 34°39' E 033°00'0 0.0
2014-Sep-26 07:31N 34°39' E 033°00'0 0.0
2014-Sep-26 06:32N 34°39' E 033°00'0 0.0
2014-Sep-26 05:31N 34°39' E 033°00'0 0.0
2014-Sep-26 04:32N 34°39' E 033°00'0 0.0
2014-Sep-26 03:31N 34°39' E 033°00'0 0.0
2014-Sep-26 02:32N 34°39' E 033°00'0 0.0
2014-Sep-26 01:31N 34°39' E 033°00'0 0.0
2014-Sep-26 00:32N 34°39' E 033°00'0 0.0
2014-Sep-25 23:32N 34°39' E 033°00'0 0.0
2014-Sep-25 22:32N 34°39' E 033°00'0 0.0
2014-Sep-25 21:31N 34°39' E 033°00'0 0.0
2014-Sep-25 14:32N 34°39' E 033°00'0 0.0
2014-Sep-25 13:33N 34°39' E 033°00'0 0.0
2014-Sep-25 12:33N 34°39' E 033°00'0 0.0
2014-Sep-25 11:33N 34°39' E 033°00'0 0.0
2014-Sep-25 10:33N 34°39' E 033°00'0 0.0
2014-Sep-25 09:33N 34°39' E 033°00'0 0.0
2014-Sep-25 08:32N 34°39' E 033°00'0 0.0
2014-Sep-25 07:33N 34°39' E 033°00'0 0.0
2014-Sep-25 06:32N 34°39' E 033°00'0 0.0
2014-Sep-25 05:32N 34°39' E 033°00'0 0.0
2014-Sep-25 04:32N 34°39' E 033°00'0 0.0
2014-Sep-25 03:32N 34°39' E 033°00'0 0.0
2014-Sep-25 02:32N 34°39' E 033°00'0 0.0
2014-Sep-25 01:32N 34°39' E 033°00'0 0.0
2014-Sep-25 00:32N 34°39' E 033°00'0 0.0
2014-Sep-24 23:32N 34°39' E 033°00'0 0.0
2014-Sep-24 22:32N 34°39' E 033°00'0 0.0
2014-Sep-24 21:32N 34°39' E 033°00'0 0.0
2014-Sep-24 20:32N 34°39' E 033°00'0 0.0
2014-Sep-24 19:32N 34°39' E 033°00'0 0.0
2014-Sep-24 18:32N 34°39' E 033°00'0 0.0
2014-Sep-24 17:31N 34°39' E 033°00'0 0.0
2014-Sep-24 16:31N 34°39' E 033°00'0 0.0
2014-Sep-24 15:32N 34°39' E 033°00'0 0.0
2014-Sep-24 14:33N 34°39' E 033°00'0 0.0
2014-Sep-24 13:31N 34°39' E 033°00'0 0.0
2014-Sep-24 12:33N 34°39' E 033°00'0 0.0
2014-Sep-24 11:32N 34°39' E 033°00'0 0.0
2014-Sep-24 10:33N 34°39' E 033°00'0 0.0
2014-Sep-24 09:33N 34°39' E 033°00'0 0.0
2014-Sep-24 08:32N 34°39' E 033°00'0 0.0
2014-Sep-24 07:33N 34°39' E 033°00'0 0.0
2014-Sep-24 06:33N 34°39' E 033°00'0 0.0
2014-Sep-24 05:32N 34°39' E 033°00'0 0.0
2014-Sep-24 04:30N 34°39' E 033°00'0 0.0
2014-Sep-24 03:31N 34°39' E 033°00'0 0.0
2014-Sep-24 02:33N 34°39' E 033°00'0 0.0
2014-Sep-24 01:31N 34°39' E 033°00'0 0.0
2014-Sep-24 00:31N 34°39' E 033°00'0 0.0
2014-Sep-23 23:33N 34°39' E 033°00'0 0.0
2014-Sep-23 22:31N 34°39' E 033°00'0 0.0
2014-Sep-23 21:31N 34°39' E 033°00'0 0.0
2014-Sep-23 20:31N 34°39' E 033°00'0 0.0
2014-Sep-23 19:31N 34°39' E 033°00'0 0.0
2014-Sep-23 18:31N 34°39' E 033°00'0 0.0
2014-Sep-23 17:34N 34°39' E 033°00'0 0.0
2014-Sep-23 16:33N 34°39' E 033°00'0 0.0
2014-Sep-23 15:30N 34°39' E 033°00'0 0.0
2014-Sep-23 14:32N 34°39' E 033°00'0 0.0
2014-Sep-23 13:32N 34°39' E 033°00'0 0.0
2014-Sep-23 12:32N 34°39' E 033°00'0 0.0
2014-Sep-23 11:32N 34°39' E 033°00'0 0.0
2014-Sep-23 10:31N 34°39' E 033°00'0 0.0
2014-Sep-23 09:31N 34°39' E 033°00'0 0.0
2014-Sep-23 08:32N 34°39' E 033°00'0 0.0
2014-Sep-23 07:32N 34°39' E 033°00'0 0.0
2014-Sep-23 06:31N 34°39' E 033°00'0 0.0
2014-Sep-23 05:31N 34°39' E 033°00'0 0.0
2014-Sep-23 04:32N 34°39' E 033°00'0 0.0
2014-Sep-23 03:32N 34°39' E 033°00'0 0.0
2014-Sep-23 02:32N 34°39' E 033°00'0 0.0
2014-Sep-23 01:32N 34°39' E 033°00'0 0.0
2014-Sep-23 00:32N 34°39' E 033°00'0 0.0
2014-Sep-22 23:32N 34°39' E 033°00'0 0.0
2014-Sep-22 22:32N 34°39' E 033°00'0 0.0
2014-Sep-22 21:32N 34°39' E 033°00'0 0.0
2014-Sep-22 20:32N 34°39' E 033°00'0 0.0
2014-Sep-22 19:33N 34°39' E 033°00'0 0.0
2014-Sep-22 18:32N 34°39' E 033°00'0 0.0
2014-Sep-22 17:32N 34°39' E 033°00'0 0.0
2014-Sep-22 16:32N 34°39' E 033°00'0 0.0
2014-Sep-22 15:32N 34°39' E 033°00'0 0.0
2014-Sep-22 14:31N 34°39' E 033°00'0 0.0
2014-Sep-22 13:31N 34°39' E 033°00'0 0.0
2014-Sep-22 12:30N 34°39' E 033°00'0 0.0
2014-Sep-22 11:31N 34°39' E 033°00'0 0.0
2014-Sep-22 10:31N 34°39' E 033°00'0 0.0
2014-Sep-22 09:33N 34°39' E 033°00'  
Track history (hours):
 
Tides and Currents Weather Stations Pressure Air Temp Water Temp Dewpoint Dewpoint Depression Visibility Wind Speed Wind Dir Waves Ship Positions

Pileas I

Last reported at 2014-Oct-02 09:31 UTC. Time now 2014-Oct-02 10:27 UTC.
Position N 34°39' E 033°00'.

Length 36 m; draft 3.6 m.

Type: Tug. MMSI: 209668000.

Date/timePositionNaut miles runAvg speedWind from/ knotsBaromVisibWave heightAir tempDewpointWater temp
2014-Oct-02 09:31N 34°39' E 033°00'0 0.0
2014-Oct-02 08:31N 34°39' E 033°00'0 0.0
2014-Oct-02 07:31N 34°39' E 033°00'0 0.0
2014-Oct-02 06:31N 34°39' E 033°00'0 0.0
2014-Oct-02 05:31N 34°39' E 033°00'0 0.0
2014-Oct-02 04:33N 34°39' E 033°00'0 0.0
2014-Oct-02 03:30N 34°39' E 033°00'0 0.0
2014-Oct-02 02:30N 34°39' E 033°00'0 0.0
2014-Oct-02 01:33N 34°39' E 033°00'0 0.0
2014-Oct-02 00:33N 34°39' E 033°00'0 0.0
2014-Oct-01 23:31N 34°39' E 033°00'0 0.0
2014-Oct-01 22:33N 34°39' E 033°00'0 0.0
2014-Oct-01 21:33N 34°39' E 033°00'0 0.0
2014-Oct-01 20:33N 34°39' E 033°00'0 0.0
2014-Oct-01 19:33N 34°39' E 033°00'0 0.0
2014-Oct-01 18:30N 34°39' E 033°00'0 0.0
2014-Oct-01 17:34N 34°39' E 033°00'0 0.0
2014-Oct-01 16:34N 34°39' E 033°00'0 0.0
2014-Oct-01 15:33N 34°39' E 033°00'0 0.0
2014-Oct-01 14:31N 34°39' E 033°00'0 0.0
2014-Oct-01 13:33N 34°39' E 033°00'0 0.0
2014-Oct-01 12:33N 34°39' E 033°00'0 0.0
2014-Oct-01 11:33N 34°39' E 033°00'0 0.0
2014-Oct-01 10:31N 34°39' E 033°00'0 0.0
2014-Oct-01 09:30N 34°39' E 033°00'0 0.0
2014-Oct-01 08:30N 34°39' E 033°00'0 0.0
2014-Oct-01 07:30N 34°39' E 033°00'0 0.0
2014-Oct-01 06:31N 34°39' E 033°00'0 0.0
2014-Oct-01 05:33N 34°39' E 033°00'0 0.0
2014-Oct-01 04:33N 34°39' E 033°00'0 0.0
2014-Oct-01 03:33N 34°39' E 033°00'0 0.0
2014-Oct-01 02:33N 34°39' E 033°00'0 0.0
2014-Oct-01 01:33N 34°39' E 033°00'0 0.0
2014-Oct-01 00:32N 34°39' E 033°00'0 0.0
2014-Sep-30 23:33N 34°39' E 033°00'0 0.0
2014-Sep-30 22:33N 34°39' E 033°00'0 0.0
2014-Sep-30 21:33N 34°39' E 033°00'0 0.0
2014-Sep-30 20:33N 34°39' E 033°00'0 0.0
2014-Sep-30 19:33N 34°39' E 033°00'0 0.0
2014-Sep-30 18:33N 34°39' E 033°00'0 0.0
2014-Sep-30 17:32N 34°39' E 033°00'0 0.0
2014-Sep-30 16:33N 34°39' E 033°00'0 0.0
2014-Sep-30 15:33N 34°39' E 033°00'0 0.0
2014-Sep-30 14:33N 34°39' E 033°00'0 0.0
2014-Sep-30 13:33N 34°39' E 033°00'0 0.0
2014-Sep-30 12:34N 34°39' E 033°00'0 0.0
2014-Sep-30 11:33N 34°39' E 033°00'0 0.0
2014-Sep-30 10:33N 34°39' E 033°00'0 0.0
2014-Sep-30 09:33N 34°39' E 033°00'0 0.0
2014-Sep-30 08:33N 34°39' E 033°00'0 0.0
2014-Sep-30 07:33N 34°39' E 033°00'0 0.0
2014-Sep-30 06:33N 34°39' E 033°00'0 0.0
2014-Sep-30 05:33N 34°39' E 033°00'0 0.0
2014-Sep-30 04:30N 34°39' E 033°00'0 0.0
2014-Sep-30 03:33N 34°39' E 033°00'0 0.0
2014-Sep-30 02:31N 34°39' E 033°00'0 0.0
2014-Sep-30 01:33N 34°39' E 033°00'0 0.0
2014-Sep-30 00:31N 34°39' E 033°00'0 0.0
2014-Sep-29 23:34N 34°39' E 033°00'0 0.0
2014-Sep-29 22:31N 34°39' E 033°00'0 0.0
2014-Sep-29 21:33N 34°39' E 033°00'0 0.0
2014-Sep-29 20:31N 34°39' E 033°00'0 0.0
2014-Sep-29 19:31N 34°39' E 033°00'0 0.0
2014-Sep-29 18:31N 34°39' E 033°00'0 0.0
2014-Sep-29 17:31N 34°39' E 033°00'0 0.0
2014-Sep-29 16:33N 34°39' E 033°00'0 0.0
2014-Sep-29 15:33N 34°39' E 033°00'0 0.0
2014-Sep-29 14:32N 34°39' E 033°00'0 0.0
2014-Sep-29 13:33N 34°39' E 033°00'0 0.0
2014-Sep-29 12:33N 34°39' E 033°00'0 0.0
2014-Sep-29 11:32N 34°39' E 033°00'0 0.0
2014-Sep-29 10:32N 34°39' E 033°00'0 0.0
2014-Sep-29 09:33N 34°39' E 033°00'0 0.0
2014-Sep-29 08:33N 34°39' E 033°00'3 2.8
2014-Sep-29 07:33N 34°39' E 033°04'8 7.7
2014-Sep-29 06:33N 34°40' E 033°13'6 4.6
2014-Sep-29 05:18N 34°43' E 033°19'3 4.2
2014-Sep-29 04:33N 34°40' E 033°18'9 8.7
2014-Sep-29 03:34N 34°39' E 033°07'6 5.6
2014-Sep-29 02:33N 34°39' E 033°00'0 0.0
2014-Sep-29 01:32N 34°39' E 033°00'0 0.0
2014-Sep-29 00:32N 34°39' E 033°00'0 0.0
2014-Sep-28 23:32N 34°39' E 033°00'0 0.0
2014-Sep-28 22:32N 34°39' E 033°00'0 0.0
2014-Sep-28 21:29N 34°39' E 033°00'0 0.0
2014-Sep-28 20:32N 34°39' E 033°00'0 0.0
2014-Sep-28 19:32N 34°39' E 033°00'0 0.0
2014-Sep-28 18:32N 34°39' E 033°00'0 0.0
2014-Sep-28 17:32N 34°39' E 033°00'0 0.0
2014-Sep-28 16:32N 34°39' E 033°00'0 0.0
2014-Sep-28 15:32N 34°39' E 033°00'0 0.0
2014-Sep-28 14:32N 34°39' E 033°00'0 0.0
2014-Sep-28 13:32N 34°39' E 033°00'0 0.0
2014-Sep-28 12:29N 34°39' E 033°00'0 0.0
2014-Sep-28 11:32N 34°39' E 033°00'0 0.0
2014-Sep-28 10:32N 34°39' E 033°00'0 0.0
2014-Sep-28 09:32N 34°39' E 033°00'0 0.0
2014-Sep-28 08:32N 34°39' E 033°00'0 0.0
2014-Sep-28 07:32N 34°39' E 033°00'0 0.0
2014-Sep-28 06:32N 34°39' E 033°00'0 0.0
2014-Sep-28 05:32N 34°39' E 033°00'0 0.0
2014-Sep-28 04:29N 34°39' E 033°00'0 0.0
2014-Sep-28 03:32N 34°39' E 033°00'0 0.0
2014-Sep-28 02:32N 34°39' E 033°00'0 0.0
2014-Sep-28 01:32N 34°39' E 033°00'0 0.0
2014-Sep-28 00:32N 34°39' E 033°00'0 0.0
2014-Sep-27 23:31N 34°39' E 033°00'0 0.0
2014-Sep-27 22:32N 34°39' E 033°00'0 0.0
2014-Sep-27 21:32N 34°39' E 033°00'0 0.0
2014-Sep-27 20:32N 34°39' E 033°00'0 0.0
2014-Sep-27 19:32N 34°39' E 033°00'0 0.0
2014-Sep-27 18:31N 34°39' E 033°00'0 0.0
2014-Sep-27 17:32N 34°39' E 033°00'0 0.0
2014-Sep-27 16:34N 34°39' E 033°00'0 0.0
2014-Sep-27 15:30N 34°39' E 033°00'0 0.0
2014-Sep-27 14:33N 34°39' E 033°00'0 0.0
2014-Sep-27 13:31N 34°39' E 033°00'0 0.0
2014-Sep-27 12:33N 34°39' E 033°00'0 0.0
2014-Sep-27 11:31N 34°39' E 033°00'0 0.0
2014-Sep-27 10:33N 34°39' E 033°00'0 0.0
2014-Sep-27 09:33N 34°39' E 033°00'0 0.0
2014-Sep-27 08:30N 34°39' E 033°00'0 0.0
2014-Sep-27 07:31N 34°39' E 033°00'0 0.0
2014-Sep-27 06:33N 34°39' E 033°00'0 0.0
2014-Sep-27 05:33N 34°39' E 033°00'0 0.0
2014-Sep-27 04:32N 34°39' E 033°00'0 0.0
2014-Sep-27 03:32N 34°39' E 033°00'0 0.0
2014-Sep-27 02:32N 34°39' E 033°00'0 0.0
2014-Sep-27 01:33N 34°39' E 033°00'0 0.0
2014-Sep-27 00:32N 34°39' E 033°00'0 0.0
2014-Sep-26 23:32N 34°39' E 033°00'0 0.0
2014-Sep-26 22:32N 34°39' E 033°00'0 0.0
2014-Sep-26 21:29N 34°39' E 033°00'0 0.0
2014-Sep-26 20:17N 34°39' E 033°00'0 0.0
2014-Sep-26 19:33N 34°39' E 033°00'0 0.0
2014-Sep-26 18:32N 34°39' E 033°00'0 0.0
2014-Sep-26 17:29N 34°39' E 033°00'0 0.0
2014-Sep-26 16:25N 34°39' E 033°00'0 0.0
2014-Sep-26 15:26N 34°39' E 033°00'0 0.0
2014-Sep-26 14:31N 34°39' E 033°00'0 0.0
2014-Sep-26 13:31N 34°39' E 033°00'0 0.0
2014-Sep-26 12:31N 34°39' E 033°00'0 0.0
2014-Sep-26 11:31N 34°39' E 033°00'0 0.0
2014-Sep-26 10:31N 34°39' E 033°00'0 0.0
2014-Sep-26 09:31N 34°39' E 033°00'0 0.0
2014-Sep-26 08:28N 34°39' E 033°00'0 0.0
2014-Sep-26 07:31N 34°39' E 033°00'0 0.0
2014-Sep-26 06:32N 34°39' E 033°00'0 0.0
2014-Sep-26 05:31N 34°39' E 033°00'0 0.0
2014-Sep-26 04:32N 34°39' E 033°00'0 0.0
2014-Sep-26 03:31N 34°39' E 033°00'0 0.0
2014-Sep-26 02:32N 34°39' E 033°00'0 0.0
2014-Sep-26 01:31N 34°39' E 033°00'0 0.0
2014-Sep-26 00:32N 34°39' E 033°00'0 0.0
2014-Sep-25 23:32N 34°39' E 033°00'0 0.0
2014-Sep-25 22:32N 34°39' E 033°00'0 0.0
2014-Sep-25 21:31N 34°39' E 033°00'0 0.0
2014-Sep-25 14:32N 34°39' E 033°00'0 0.0
2014-Sep-25 13:33N 34°39' E 033°00'0 0.0
2014-Sep-25 12:33N 34°39' E 033°00'0 0.0
2014-Sep-25 11:33N 34°39' E 033°00'0 0.0
2014-Sep-25 10:33N 34°39' E 033°00'0 0.0
2014-Sep-25 09:33N 34°39' E 033°00'0 0.0
2014-Sep-25 08:32N 34°39' E 033°00'0 0.0
2014-Sep-25 07:33N 34°39' E 033°00'0 0.0
2014-Sep-25 06:32N 34°39' E 033°00'0 0.0
2014-Sep-25 05:32N 34°39' E 033°00'0 0.0
2014-Sep-25 04:32N 34°39' E 033°00'0 0.0
2014-Sep-25 03:32N 34°39' E 033°00'0 0.0
2014-Sep-25 02:32N 34°39' E 033°00'0 0.0
2014-Sep-25 01:32N 34°39' E 033°00'0 0.0
2014-Sep-25 00:32N 34°39' E 033°00'0 0.0
2014-Sep-24 23:32N 34°39' E 033°00'0 0.0
2014-Sep-24 22:32N 34°39' E 033°00'0 0.0
2014-Sep-24 21:32N 34°39' E 033°00'0 0.0
2014-Sep-24 20:32N 34°39' E 033°00'0 0.0
2014-Sep-24 19:32N 34°39' E 033°00'0 0.0
2014-Sep-24 18:32N 34°39' E 033°00'0 0.0
2014-Sep-24 17:31N 34°39' E 033°00'0 0.0
2014-Sep-24 16:31N 34°39' E 033°00'0 0.0
2014-Sep-24 15:32N 34°39' E 033°00'0 0.0
2014-Sep-24 14:33N 34°39' E 033°00'0 0.0
2014-Sep-24 13:31N 34°39' E 033°00'0 0.0
2014-Sep-24 12:33N 34°39' E 033°00'0 0.0
2014-Sep-24 11:32N 34°39' E 033°00'0 0.0
2014-Sep-24 10:33N 34°39' E 033°00'0 0.0
2014-Sep-24 09:33N 34°39' E 033°00'0 0.0
2014-Sep-24 08:32N 34°39' E 033°00'0 0.0
2014-Sep-24 07:33N 34°39' E 033°00'0 0.0
2014-Sep-24 06:33N 34°39' E 033°00'0 0.0
2014-Sep-24 05:32N 34°39' E 033°00'0 0.0
2014-Sep-24 04:30N 34°39' E 033°00'0 0.0
2014-Sep-24 03:31N 34°39' E 033°00'0 0.0
2014-Sep-24 02:33N 34°39' E 033°00'0 0.0
2014-Sep-24 01:31N 34°39' E 033°00'0 0.0
2014-Sep-24 00:31N 34°39' E 033°00'0 0.0
2014-Sep-23 23:33N 34°39' E 033°00'0 0.0
2014-Sep-23 22:31N 34°39' E 033°00'0 0.0
2014-Sep-23 21:31N 34°39' E 033°00'0 0.0
2014-Sep-23 20:31N 34°39' E 033°00'0 0.0
2014-Sep-23 19:31N 34°39' E 033°00'0 0.0
2014-Sep-23 18:31N 34°39' E 033°00'0 0.0
2014-Sep-23 17:34N 34°39' E 033°00'0 0.0
2014-Sep-23 16:33N 34°39' E 033°00'0 0.0
2014-Sep-23 15:30N 34°39' E 033°00'0 0.0
2014-Sep-23 14:32N 34°39' E 033°00'0 0.0
2014-Sep-23 13:32N 34°39' E 033°00'0 0.0
2014-Sep-23 12:32N 34°39' E 033°00'0 0.0
2014-Sep-23 11:32N 34°39' E 033°00'0 0.0
2014-Sep-23 10:31N 34°39' E 033°00'0 0.0
2014-Sep-23 09:31N 34°39' E 033°00'0 0.0
2014-Sep-23 08:32N 34°39' E 033°00'0 0.0
2014-Sep-23 07:32N 34°39' E 033°00'0 0.0
2014-Sep-23 06:31N 34°39' E 033°00'0 0.0
2014-Sep-23 05:31N 34°39' E 033°00'0 0.0
2014-Sep-23 04:32N 34°39' E 033°00'0 0.0
2014-Sep-23 03:32N 34°39' E 033°00'0 0.0
2014-Sep-23 02:32N 34°39' E 033°00'0 0.0
2014-Sep-23 01:32N 34°39' E 033°00'0 0.0
2014-Sep-23 00:32N 34°39' E 033°00'0 0.0
2014-Sep-22 23:32N 34°39' E 033°00'0 0.0
2014-Sep-22 22:32N 34°39' E 033°00'0 0.0
2014-Sep-22 21:32N 34°39' E 033°00'0 0.0
2014-Sep-22 20:32N 34°39' E 033°00'0 0.0
2014-Sep-22 19:33N 34°39' E 033°00'0 0.0
2014-Sep-22 18:32N 34°39' E 033°00'0 0.0
2014-Sep-22 17:32N 34°39' E 033°00'0 0.0
2014-Sep-22 16:32N 34°39' E 033°00'0 0.0
2014-Sep-22 15:32N 34°39' E 033°00'0 0.0
2014-Sep-22 14:31N 34°39' E 033°00'0 0.0
2014-Sep-22 13:31N 34°39' E 033°00'0 0.0
2014-Sep-22 12:30N 34°39' E 033°00'0 0.0
2014-Sep-22 11:31N 34°39' E 033°00'0 0.0
2014-Sep-22 10:31N 34°39' E 033°00'0 0.0
2014-Sep-22 09:33N 34°39' E 033°00'  

Dump ship's entire track history